createdAt,value
2018-06-13T00:01:54.896Z,13.87
2018-06-13T00:04:22.925Z,13.27
2018-06-13T00:06:50.976Z,15.40
2018-06-13T00:09:19.044Z,17.67
2018-06-13T00:11:47.005Z,14.33
2018-06-13T00:14:14.933Z,16.87
2018-06-13T00:16:42.893Z,12.13
2018-06-13T00:19:10.821Z,11.87
2018-06-13T00:21:38.725Z,8.60
2018-06-13T00:24:06.801Z,10.67
2018-06-13T00:26:34.870Z,9.60
2018-06-13T00:29:02.908Z,8.90
2018-06-13T00:31:31.183Z,11.10
2018-06-13T00:33:59.417Z,6.63
2018-06-13T00:36:28.077Z,13.30
2018-06-13T00:38:56.056Z,11.33
2018-06-13T00:41:24.057Z,10.20
2018-06-13T00:43:52.025Z,10.77
2018-06-13T00:46:20.051Z,8.40
2018-06-13T00:48:48.086Z,9.63
2018-06-13T00:51:16.008Z,6.53
2018-06-13T00:53:43.907Z,9.27
2018-06-13T00:56:17.564Z,11.40
2018-06-13T00:58:45.484Z,4.67
2018-06-13T01:01:13.401Z,5.33
2018-06-13T01:03:41.324Z,16.33
2018-06-13T01:06:09.241Z,5.77
2018-06-13T01:08:37.553Z,11.17
2018-06-13T01:11:05.718Z,4.37
2018-06-13T01:13:33.888Z,4.57
2018-06-13T01:16:02.070Z,4.53
2018-06-13T01:18:30.440Z,10.50
2018-06-13T01:20:58.588Z,6.83
2018-06-13T01:23:26.776Z,7.23
2018-06-13T01:25:54.681Z,8.07
2018-06-13T01:28:22.702Z,7.87
2018-06-13T01:30:50.853Z,8.00
2018-06-13T01:33:19.006Z,14.63
2018-06-13T01:35:46.962Z,9.20
2018-06-13T01:38:14.893Z,11.37
2018-06-13T01:40:42.817Z,21.30
2018-06-13T01:43:10.773Z,12.57
2018-06-13T01:45:38.710Z,11.13
2018-06-13T01:48:06.761Z,15.00
2018-06-13T01:50:34.852Z,17.37
2018-06-13T01:53:03.048Z,15.23
2018-06-13T01:55:31.351Z,17.40
2018-06-13T01:57:59.505Z,15.73
2018-06-13T02:00:28.012Z,16.93
2018-06-13T02:02:55.959Z,18.23
2018-06-13T02:05:23.904Z,16.50
2018-06-13T02:07:51.940Z,19.40
2018-06-13T02:10:20.162Z,18.90
2018-06-13T02:12:48.245Z,16.20
2018-06-13T02:15:16.183Z,18.27
2018-06-13T02:17:44.125Z,19.73
2018-06-13T02:20:12.097Z,20.13
2018-06-13T02:22:40.030Z,18.53
2018-06-13T02:25:07.981Z,20.63
2018-06-13T02:27:35.994Z,25.73
2018-06-13T02:30:04.060Z,23.40
2018-06-13T02:32:32.458Z,29.87
2018-06-13T02:35:00.769Z,32.67
2018-06-13T02:37:29.173Z,33.80
2018-06-13T02:39:57.311Z,36.20
2018-06-13T02:42:25.245Z,34.37
2018-06-13T02:44:53.449Z,32.83
2018-06-13T02:47:21.557Z,29.70
2018-06-13T02:49:49.842Z,27.93
2018-06-13T02:52:17.865Z,26.00
2018-06-13T02:54:45.809Z,23.70
2018-06-13T02:57:13.790Z,20.73
2018-06-13T02:59:41.830Z,26.57
2018-06-13T03:02:09.746Z,26.07
2018-06-13T03:04:37.680Z,25.77
2018-06-13T03:07:06.071Z,27.97
2018-06-13T03:09:34.118Z,24.20
2018-06-13T03:12:02.343Z,24.50
2018-06-13T03:14:30.645Z,25.87
2018-06-13T03:16:58.878Z,25.07
2018-06-13T03:19:26.889Z,32.43
2018-06-13T03:21:54.856Z,27.27
2018-06-13T03:24:22.849Z,34.40
2018-06-13T03:26:50.950Z,35.33
2018-06-13T03:29:19.061Z,31.77
2018-06-13T03:31:47.062Z,35.17
2018-06-13T03:34:15.015Z,35.63
2018-06-13T03:36:42.926Z,38.47
2018-06-13T03:39:10.865Z,40.60
2018-06-13T03:41:38.777Z,39.70
2018-06-13T03:44:06.732Z,31.77
2018-06-13T03:46:34.829Z,44.23
2018-06-13T03:49:03.124Z,38.50
2018-06-13T03:51:31.642Z,44.20
2018-06-13T03:53:59.808Z,41.73
2018-06-13T03:56:28.091Z,44.90
2018-06-13T03:58:56.032Z,42.10
2018-06-13T04:01:23.997Z,35.30
2018-06-13T04:03:52.285Z,35.53
2018-06-13T04:06:20.689Z,35.00
2018-06-13T04:08:48.993Z,35.33
2018-06-13T04:11:16.922Z,35.70
2018-06-13T04:13:44.956Z,39.53
2018-06-13T04:16:12.814Z,38.13
2018-06-13T04:18:40.732Z,39.93
2018-06-13T04:21:08.685Z,49.40
2018-06-13T04:23:36.624Z,44.57
2018-06-13T04:26:04.674Z,53.37
2018-06-13T04:28:33.068Z,47.83
2018-06-13T04:31:01.293Z,53.00
2018-06-13T04:33:29.634Z,53.67
2018-06-13T04:35:57.783Z,61.43
2018-06-13T04:38:25.714Z,61.33
2018-06-13T04:40:53.654Z,64.37
2018-06-13T04:43:21.753Z,62.80
2018-06-13T04:45:49.874Z,64.17
2018-06-13T04:48:17.866Z,59.97
2018-06-13T04:50:45.789Z,56.53
2018-06-13T04:53:13.733Z,52.37
2018-06-13T04:55:42.765Z,57.07
2018-06-13T04:58:11.550Z,46.83
2018-06-13T05:00:40.290Z,46.80
2018-06-13T05:03:08.290Z,43.30
2018-06-13T05:05:37.719Z,44.63
2018-06-13T05:08:07.246Z,46.43
2018-06-13T05:10:35.311Z,51.27
2018-06-13T05:13:03.331Z,43.57
2018-06-13T05:15:31.699Z,39.63
2018-06-13T05:17:59.962Z,38.90
2018-06-13T05:20:28.336Z,37.00
2018-06-13T05:22:56.318Z,42.63
2018-06-13T05:25:24.253Z,38.40
2018-06-13T05:27:52.530Z,37.30
2018-06-13T05:30:20.564Z,30.87
2018-06-13T05:32:48.764Z,35.00
2018-06-13T05:35:16.681Z,36.90
2018-06-13T05:37:44.613Z,26.47
2018-06-13T05:40:12.553Z,29.43
2018-06-13T05:42:40.505Z,30.50
2018-06-13T05:45:08.460Z,25.00
2018-06-13T05:47:36.489Z,27.10
2018-06-13T05:50:04.536Z,26.83
2018-06-13T05:52:32.619Z,30.10
2018-06-13T05:55:01.006Z,28.27
2018-06-13T05:57:29.340Z,27.90
2018-06-13T05:59:57.386Z,30.57
2018-06-13T06:02:25.357Z,28.13
2018-06-13T06:04:53.320Z,24.67
2018-06-13T06:07:21.385Z,28.40
2018-06-13T06:09:49.389Z,21.70
2018-06-13T06:12:17.333Z,28.50
2018-06-13T06:14:45.320Z,28.67
2018-06-13T06:17:13.306Z,28.13
2018-06-13T06:19:41.218Z,29.47
2018-06-13T06:22:09.170Z,33.80
2018-06-13T06:24:37.086Z,31.13
2018-06-13T06:27:05.124Z,34.90
2018-06-13T06:29:33.209Z,36.53
2018-06-13T06:32:01.422Z,36.87
2018-06-13T06:34:30.270Z,36.00
2018-06-13T06:36:58.546Z,40.83
2018-06-13T06:39:26.484Z,37.63
2018-06-13T06:41:54.438Z,40.70
2018-06-13T06:44:22.552Z,41.30
2018-06-13T06:46:50.540Z,42.03
2018-06-13T06:49:18.586Z,34.70
2018-06-13T06:51:46.624Z,32.90
2018-06-13T06:54:14.534Z,33.20
2018-06-13T06:56:42.438Z,30.17
2018-06-13T06:59:10.387Z,26.60
2018-06-13T07:01:38.325Z,27.73
2018-06-13T07:04:06.461Z,25.90
2018-06-13T07:06:34.577Z,28.73
2018-06-13T07:09:02.748Z,24.07
2018-06-13T07:11:30.986Z,26.47
2018-06-13T07:13:59.316Z,22.60
2018-06-13T07:16:27.521Z,25.00
2018-06-13T07:18:55.635Z,23.00
2018-06-13T07:21:23.489Z,23.23
2018-06-13T07:23:54.051Z,25.03
2018-06-13T07:26:23.541Z,20.47
2018-06-13T07:28:57.052Z,20.03
2018-06-13T07:31:25.147Z,24.93
2018-06-13T07:33:53.037Z,25.43
2018-06-13T07:36:21.103Z,22.60
2018-06-13T07:38:49.243Z,22.27
2018-06-13T07:41:18.806Z,22.63
2018-06-13T07:43:47.572Z,28.07
2018-06-13T07:46:15.588Z,23.23
2018-06-13T07:48:43.524Z,31.77
2018-06-13T07:51:11.503Z,29.50
2018-06-13T07:53:39.647Z,35.23
2018-06-13T07:56:07.534Z,35.33
2018-06-13T07:58:35.584Z,35.90
2018-06-13T08:01:03.680Z,35.90
2018-06-13T08:03:31.884Z,41.17
2018-06-13T08:06:00.137Z,40.20
2018-06-13T08:08:28.387Z,42.83
2018-06-13T08:10:56.336Z,44.47
2018-06-13T08:13:25.137Z,42.47
2018-06-13T08:15:53.090Z,50.00
2018-06-13T08:18:21.185Z,43.80
2018-06-13T08:20:49.368Z,40.17
2018-06-13T08:23:17.288Z,41.10
2018-06-13T08:25:45.466Z,49.13
2018-06-13T08:28:13.409Z,41.77
2018-06-13T08:30:41.343Z,50.60
2018-06-13T08:33:09.276Z,46.27
2018-06-13T08:35:37.537Z,46.80
2018-06-13T08:38:05.759Z,48.53
2018-06-13T08:40:33.775Z,56.80
2018-06-13T08:43:02.031Z,44.73
2018-06-13T08:45:30.438Z,52.77
2018-06-13T08:47:58.704Z,48.43
2018-06-13T08:50:26.834Z,51.23
2018-06-13T08:52:54.809Z,54.50
2018-06-13T08:55:22.738Z,47.03
2018-06-13T08:57:50.874Z,53.30
2018-06-13T09:00:18.913Z,49.90
2018-06-13T09:02:46.849Z,49.17
2018-06-13T09:05:14.810Z,51.77
2018-06-13T09:07:42.742Z,51.40
2018-06-13T09:10:10.741Z,68.63
2018-06-13T09:12:38.666Z,64.60
2018-06-13T09:15:06.837Z,53.93
2018-06-13T09:17:34.916Z,50.93
2018-06-13T09:20:03.203Z,61.97
2018-06-13T09:22:31.485Z,60.93
2018-06-13T09:25:00.279Z,63.57
2018-06-13T09:27:28.676Z,58.03
2018-06-13T09:29:56.686Z,53.60
2018-06-13T09:32:24.629Z,56.50
2018-06-13T09:34:52.729Z,52.40
2018-06-13T09:37:20.928Z,64.87
2018-06-13T09:39:49.005Z,53.67
2018-06-13T09:42:16.971Z,59.70
2018-06-13T09:44:44.893Z,56.97
2018-06-13T09:47:15.138Z,63.40
2018-06-13T09:49:40.777Z,51.00
2018-06-13T09:52:08.689Z,52.67
2018-06-13T09:54:36.763Z,54.97
2018-06-13T09:57:04.930Z,50.17
2018-06-13T09:59:40.262Z,48.70
2018-06-13T10:02:14.008Z,49.93
2018-06-13T10:04:41.951Z,43.40
2018-06-13T10:07:09.928Z,58.50
2018-06-13T10:09:37.921Z,49.90
2018-06-13T10:12:05.993Z,45.20
2018-06-13T10:14:34.065Z,48.73
2018-06-13T10:17:02.266Z,48.53
2018-06-13T10:19:30.660Z,58.23
2018-06-13T10:21:58.862Z,55.43
2018-06-13T10:24:27.349Z,45.73
2018-06-13T10:26:55.306Z,56.23
2018-06-13T10:29:23.323Z,43.93
2018-06-13T10:31:51.513Z,60.50
2018-06-13T10:34:19.655Z,46.93
2018-06-13T10:36:47.612Z,49.30
2018-06-13T10:39:15.521Z,56.60
2018-06-13T10:41:43.473Z,40.60
2018-06-13T10:44:11.401Z,50.07
2018-06-13T10:46:39.365Z,43.20
2018-06-13T10:49:07.382Z,50.03
2018-06-13T10:51:35.470Z,53.30
2018-06-13T10:54:03.564Z,58.40
2018-06-13T10:56:31.905Z,48.10
2018-06-13T10:59:00.054Z,49.10
2018-06-13T11:01:28.388Z,41.67
2018-06-13T11:03:56.326Z,42.80
2018-06-13T11:06:24.244Z,40.17
2018-06-13T11:08:52.301Z,58.70
2018-06-13T11:11:20.335Z,38.83
2018-06-13T11:13:48.326Z,45.80
2018-06-13T11:16:16.240Z,43.30
2018-06-13T11:18:44.212Z,41.87
2018-06-13T11:21:12.133Z,44.73
2018-06-13T11:23:40.070Z,46.17
2018-06-13T11:26:08.036Z,45.13
2018-06-13T11:28:36.200Z,41.47
2018-06-13T11:31:04.341Z,43.63
2018-06-13T11:33:32.546Z,44.97
2018-06-13T11:36:00.832Z,34.63
2018-06-13T11:38:29.074Z,42.97
2018-06-13T11:40:57.123Z,44.57
2018-06-13T11:43:25.274Z,43.30
2018-06-13T11:45:53.524Z,38.83
2018-06-13T11:48:21.665Z,36.83
2018-06-13T11:50:49.778Z,42.10
2018-06-13T11:53:17.793Z,38.07
2018-06-13T11:55:45.717Z,31.80
2018-06-13T11:58:13.781Z,34.87
2018-06-13T12:00:41.714Z,33.37
2018-06-13T12:03:09.648Z,31.53
2018-06-13T12:05:37.610Z,40.50
2018-06-13T12:08:05.797Z,30.90
2018-06-13T12:10:33.863Z,35.20
2018-06-13T12:13:02.143Z,49.10
2018-06-13T12:15:30.946Z,41.20
2018-06-13T12:17:59.631Z,34.90
2018-06-13T12:20:29.120Z,45.20
2018-06-13T12:22:57.105Z,46.07
2018-06-13T12:25:25.092Z,30.80
2018-06-13T12:27:53.498Z,39.47
2018-06-13T12:30:21.599Z,26.67
2018-06-13T12:32:49.709Z,37.43
2018-06-13T12:35:17.674Z,40.13
2018-06-13T12:37:45.610Z,37.63
2018-06-13T12:40:13.524Z,40.33
2018-06-13T12:42:41.452Z,36.77
2018-06-13T12:45:09.375Z,29.47
2018-06-13T12:47:37.357Z,33.10
2018-06-13T12:50:05.395Z,38.00
2018-06-13T12:52:33.543Z,35.53
2018-06-13T12:55:01.864Z,35.30
2018-06-13T12:57:30.202Z,28.33
2018-06-13T12:59:58.600Z,28.13
2018-06-13T13:02:26.636Z,31.67
2018-06-13T13:04:54.637Z,32.50
2018-06-13T13:07:22.681Z,33.93
2018-06-13T13:09:50.851Z,32.30
2018-06-13T13:12:18.982Z,37.57
2018-06-13T13:14:46.906Z,48.13
2018-06-13T13:17:14.832Z,40.00
2018-06-13T13:19:42.737Z,45.27
2018-06-13T13:22:10.664Z,44.43
2018-06-13T13:24:38.588Z,47.97
2018-06-13T13:27:06.574Z,37.43
2018-06-13T13:29:34.694Z,64.13
2018-06-13T13:32:03.001Z,36.70
2018-06-13T13:34:31.314Z,50.33
2018-06-13T13:37:00.915Z,50.70
2018-06-13T13:39:29.326Z,70.37
2018-06-13T13:41:57.430Z,59.80
2018-06-13T13:44:25.405Z,64.47
2018-06-13T13:46:53.565Z,47.83
2018-06-13T13:49:21.680Z,52.67
2018-06-13T13:51:49.655Z,44.97
2018-06-13T13:54:17.692Z,41.43
2018-06-13T13:56:45.558Z,42.20
2018-06-13T13:59:13.496Z,53.30
2018-06-13T14:01:41.439Z,51.03
2018-06-13T14:04:09.421Z,29.73
2018-06-13T14:06:37.333Z,65.03
2018-06-13T14:09:06.773Z,41.77
2018-06-13T14:11:34.857Z,56.60
2018-06-13T14:14:02.985Z,38.77
2018-06-13T14:16:31.270Z,44.23
2018-06-13T14:18:59.688Z,43.07
2018-06-13T14:21:28.346Z,37.00
2018-06-13T14:23:56.312Z,32.00
2018-06-13T14:26:24.237Z,36.73
2018-06-13T14:28:52.302Z,36.40
2018-06-13T14:31:20.469Z,41.60
2018-06-13T14:33:48.461Z,29.73
2018-06-13T14:36:16.387Z,29.97
2018-06-13T14:38:44.329Z,26.83
2018-06-13T14:41:12.252Z,32.63
2018-06-13T14:43:40.197Z,38.20
2018-06-13T14:46:08.129Z,33.20
2018-06-13T14:48:36.201Z,30.40
2018-06-13T14:51:04.445Z,35.40
2018-06-13T14:53:32.770Z,35.23
2018-06-13T14:56:06.065Z,29.13
2018-06-13T14:58:34.248Z,30.87
2018-06-13T15:01:02.520Z,40.47
2018-06-13T15:03:31.019Z,32.03
2018-06-13T15:05:59.462Z,34.67
2018-06-13T15:08:27.680Z,31.63
2018-06-13T15:10:55.645Z,35.67
2018-06-13T15:13:23.811Z,34.07
2018-06-13T15:15:51.775Z,26.20
2018-06-13T15:18:19.833Z,23.73
2018-06-13T15:20:47.817Z,23.27
2018-06-13T15:23:15.797Z,26.33
2018-06-13T15:25:43.692Z,24.07
2018-06-13T15:28:11.757Z,28.13
2018-06-13T15:30:39.668Z,27.80
2018-06-13T15:33:07.657Z,32.17
2018-06-13T15:35:35.949Z,28.30
2018-06-13T15:38:04.141Z,26.40
2018-06-13T15:40:32.266Z,24.70
2018-06-13T15:43:00.685Z,29.27
2018-06-13T15:45:29.079Z,23.33
2018-06-13T15:47:57.953Z,30.50
2018-06-13T15:50:25.919Z,25.50
2018-06-13T15:52:54.924Z,29.40
2018-06-13T15:55:22.913Z,24.90
2018-06-13T15:57:50.994Z,28.70
2018-06-13T16:00:19.088Z,25.77
2018-06-13T16:02:47.040Z,27.20
2018-06-13T16:05:14.985Z,26.10
2018-06-13T16:07:42.991Z,26.43
2018-06-13T16:10:10.973Z,25.27
2018-06-13T16:12:38.914Z,28.40
2018-06-13T16:15:06.857Z,28.33
2018-06-13T16:17:34.878Z,28.83
2018-06-13T16:20:03.020Z,25.60
2018-06-13T16:22:31.273Z,30.23
2018-06-13T16:24:59.549Z,25.50
2018-06-13T16:27:27.686Z,26.63
2018-06-13T16:29:55.637Z,25.30
2018-06-13T16:32:23.599Z,27.80
2018-06-13T16:34:51.573Z,27.87
2018-06-13T16:37:19.602Z,21.63
2018-06-13T16:39:47.560Z,19.80
2018-06-13T16:42:15.518Z,28.53
2018-06-13T16:44:43.457Z,31.37
2018-06-13T16:47:11.586Z,20.50
2018-06-13T16:49:39.569Z,24.50
2018-06-13T16:52:13.009Z,20.20
2018-06-13T16:54:46.520Z,24.70
2018-06-13T16:57:14.481Z,20.37
2018-06-13T16:59:42.406Z,26.57
2018-06-13T17:02:10.730Z,20.83
2018-06-13T17:04:38.936Z,19.67
2018-06-13T17:07:07.014Z,21.93
2018-06-13T17:09:35.109Z,26.20
2018-06-13T17:12:03.209Z,20.30
2018-06-13T17:14:31.461Z,24.30
2018-06-13T17:16:59.571Z,21.03
2018-06-13T17:19:27.677Z,24.53
2018-06-13T17:21:56.143Z,18.43
2018-06-13T17:24:24.081Z,27.07
2018-06-13T17:26:52.104Z,18.13
2018-06-13T17:29:20.149Z,29.50
2018-06-13T17:31:48.168Z,18.10
2018-06-13T17:34:16.151Z,22.60
2018-06-13T17:36:44.072Z,21.33
2018-06-13T17:39:12.004Z,25.23
2018-06-13T17:41:40.021Z,25.63
2018-06-13T17:44:08.661Z,23.10
2018-06-13T17:46:36.658Z,19.83
2018-06-13T17:49:04.731Z,22.60
2018-06-13T17:51:32.840Z,24.73
2018-06-13T17:54:01.048Z,21.20
2018-06-13T17:56:29.157Z,20.10
2018-06-13T17:58:57.143Z,19.93
2018-06-13T18:01:25.078Z,20.60
2018-06-13T18:03:53.085Z,17.97
2018-06-13T18:06:21.118Z,26.63
2018-06-13T18:08:49.147Z,19.40
2018-06-13T18:11:17.081Z,17.07
2018-06-13T18:13:45.025Z,19.20
2018-06-13T18:16:12.997Z,27.00
2018-06-13T18:18:40.986Z,21.13
2018-06-13T18:21:09.753Z,16.57
2018-06-13T18:23:37.697Z,23.00
2018-06-13T18:26:05.768Z,22.77
2018-06-13T18:28:33.807Z,19.43
2018-06-13T18:31:02.121Z,29.50
2018-06-13T18:33:30.489Z,20.13
2018-06-13T18:35:58.667Z,23.13
2018-06-13T18:38:26.613Z,21.23
2018-06-13T18:40:54.725Z,20.33
2018-06-13T18:43:22.817Z,19.20
2018-06-13T18:45:50.918Z,19.73
2018-06-13T18:48:18.833Z,21.17
2018-06-13T18:50:46.764Z,21.90
2018-06-13T18:53:14.716Z,19.00
2018-06-13T18:55:42.625Z,19.87
2018-06-13T18:58:11.445Z,18.27
2018-06-13T19:00:39.364Z,19.80
2018-06-13T19:03:07.309Z,15.97
2018-06-13T19:05:35.361Z,18.57
2018-06-13T19:08:03.393Z,16.30
2018-06-13T19:10:31.646Z,23.17
2018-06-13T19:12:59.834Z,20.80
2018-06-13T19:15:27.937Z,14.30
2018-06-13T19:17:55.836Z,23.33
2018-06-13T19:20:24.346Z,20.93
2018-06-13T19:22:52.377Z,19.97
2018-06-13T19:25:20.384Z,22.20
2018-06-13T19:27:48.442Z,28.20
2018-06-13T19:30:16.363Z,22.73
2018-06-13T19:32:44.304Z,16.40
2018-06-13T19:35:12.225Z,18.30
2018-06-13T19:37:40.152Z,16.23
2018-06-13T19:40:08.106Z,16.87
2018-06-13T19:42:36.205Z,15.10
2018-06-13T19:45:04.423Z,17.27
2018-06-13T19:47:37.689Z,16.80
2018-06-13T19:50:05.772Z,21.60
2018-06-13T19:52:39.341Z,18.17
2018-06-13T19:55:12.685Z,20.97
2018-06-13T19:57:40.641Z,19.20
2018-06-13T20:00:08.574Z,26.67
2018-06-13T20:02:41.886Z,14.80
2018-06-13T20:05:15.237Z,22.90
2018-06-13T20:07:43.206Z,19.33
2018-06-13T20:10:11.150Z,27.03
2018-06-13T20:12:44.534Z,22.97
2018-06-13T20:15:17.841Z,21.17
2018-06-13T20:17:51.315Z,23.67
2018-06-13T20:20:19.336Z,17.97
2018-06-13T20:22:48.365Z,20.60
2018-06-13T20:25:21.695Z,18.50
2018-06-13T20:27:55.177Z,18.30
2018-06-13T20:31:28.998Z,22.20
2018-06-13T20:33:57.206Z,13.80
2018-06-13T20:36:25.924Z,16.13
2018-06-13T20:38:54.662Z,18.23
2018-06-13T20:41:23.014Z,23.93
2018-06-13T20:43:51.276Z,19.13
2018-06-13T20:46:19.357Z,19.40
2018-06-13T20:48:47.659Z,14.90
2018-06-13T20:51:15.729Z,16.57
2018-06-13T20:53:44.769Z,43.17
2018-06-13T20:56:13.442Z,21.00
2018-06-13T20:58:41.544Z,17.90
2018-06-13T21:01:10.066Z,20.93
2018-06-13T21:03:38.543Z,14.03
2018-06-13T21:06:06.907Z,24.43
2018-06-13T21:08:35.789Z,17.60
2018-06-13T21:11:03.933Z,19.17
2018-06-13T21:13:33.117Z,16.50
2018-06-13T21:16:01.759Z,21.90
2018-06-13T21:18:30.215Z,23.97
2018-06-13T21:20:59.078Z,19.30
2018-06-13T21:23:27.745Z,23.93
2018-06-13T21:25:56.023Z,22.57
2018-06-13T21:28:24.404Z,18.60
2018-06-13T21:30:52.473Z,19.03
2018-06-13T21:33:20.501Z,15.93
2018-06-13T21:35:48.480Z,20.47
2018-06-13T21:38:16.509Z,22.50
2018-06-13T21:40:44.494Z,19.17
2018-06-13T21:43:12.852Z,15.47
2018-06-13T21:45:40.951Z,17.33
2018-06-13T21:48:09.251Z,20.53
2018-06-13T21:50:37.298Z,22.70
2018-06-13T21:53:07.011Z,28.43
2018-06-13T21:55:36.151Z,14.70
2018-06-13T21:58:04.651Z,20.10
2018-06-13T22:00:34.481Z,17.87
2018-06-13T22:03:05.765Z,18.67
2018-06-13T22:05:35.329Z,11.23
2018-06-13T22:08:04.463Z,18.53
2018-06-13T22:10:33.910Z,14.00
2018-06-13T22:13:02.314Z,22.50
2018-06-13T22:15:32.022Z,11.07
2018-06-13T22:18:02.309Z,15.03
2018-06-13T22:20:35.101Z,16.70
2018-06-13T22:23:03.330Z,16.57
2018-06-13T22:25:31.728Z,13.63
2018-06-13T22:28:00.249Z,13.83
2018-06-13T22:30:28.597Z,12.77
2018-06-13T22:32:56.629Z,17.80
2018-06-13T22:35:24.594Z,27.40
2018-06-13T22:37:52.789Z,13.40
2018-06-13T22:40:21.021Z,13.40
2018-06-13T22:42:49.357Z,16.80
2018-06-13T22:45:17.400Z,15.00
2018-06-13T22:47:45.409Z,15.87
2018-06-13T22:50:13.387Z,21.13
2018-06-13T22:52:41.334Z,21.40
2018-06-13T22:55:09.330Z,17.83
2018-06-13T22:57:37.803Z,21.00
2018-06-13T23:00:06.037Z,15.53
2018-06-13T23:02:34.265Z,21.57
2018-06-13T23:05:02.477Z,21.53
2018-06-13T23:07:30.904Z,17.80
2018-06-13T23:09:59.470Z,17.30
2018-06-13T23:12:27.668Z,20.43
2018-06-13T23:14:55.756Z,15.40
2018-06-13T23:17:23.742Z,13.90
2018-06-13T23:19:52.413Z,19.23
2018-06-13T23:22:20.575Z,32.93
2018-06-13T23:24:48.646Z,38.20
2018-06-13T23:27:16.724Z,26.27
2018-06-13T23:29:44.721Z,27.23
2018-06-13T23:32:12.665Z,25.00
2018-06-13T23:34:40.677Z,21.60
2018-06-13T23:37:08.629Z,17.53
2018-06-13T23:39:36.694Z,14.67
2018-06-13T23:42:05.082Z,20.47
2018-06-13T23:44:33.326Z,15.90
2018-06-13T23:47:01.657Z,18.43
2018-06-13T23:49:30.676Z,17.77
2018-06-13T23:51:59.134Z,12.20
2018-06-13T23:54:27.433Z,23.47
2018-06-13T23:56:55.449Z,14.73
2018-06-13T23:59:23.640Z,14.73
